createdAt,value
2023-02-08T00:01:06.795Z,103739.00
2023-02-08T00:03:33.568Z,103735.00
2023-02-08T00:06:00.279Z,103745.00
2023-02-08T00:08:27.054Z,103738.00
2023-02-08T00:10:53.916Z,103735.00
2023-02-08T00:13:20.681Z,103723.00
2023-02-08T00:15:48.188Z,103726.00
2023-02-08T00:18:15.624Z,103732.00
2023-02-08T00:20:44.006Z,103726.00
2023-02-08T00:23:12.623Z,103726.00
2023-02-08T00:25:41.279Z,103727.00
2023-02-08T00:28:13.201Z,103723.00
2023-02-08T00:30:40.555Z,103725.00
2023-02-08T00:33:07.758Z,103729.00
2023-02-08T00:35:34.815Z,103734.00
2023-02-08T00:38:01.577Z,103728.00
2023-02-08T00:40:28.757Z,103722.00
2023-02-08T00:42:55.512Z,103732.00
2023-02-08T00:45:22.243Z,103729.00
2023-02-08T00:47:49.090Z,103715.00
2023-02-08T00:50:16.032Z,103724.00
2023-02-08T00:52:42.774Z,103735.00
2023-02-08T00:55:09.540Z,103725.00
2023-02-08T00:57:36.513Z,103726.00
2023-02-08T01:00:05.222Z,103736.00
2023-02-08T01:02:31.982Z,103731.00
2023-02-08T01:04:58.818Z,103743.00
2023-02-08T01:07:25.564Z,103729.00
2023-02-08T01:09:52.271Z,103739.00
2023-02-08T01:12:19.025Z,103739.00
2023-02-08T01:14:45.823Z,103736.00
2023-02-08T01:17:12.531Z,103735.00
2023-02-08T01:19:41.120Z,103738.00
2023-02-08T01:22:08.918Z,103744.00
2023-02-08T01:24:35.662Z,103736.00
2023-02-08T01:27:02.853Z,103743.00
2023-02-08T01:29:29.858Z,103743.00
2023-02-08T01:31:56.608Z,103738.00
2023-02-08T01:34:23.368Z,103740.00
2023-02-08T01:36:50.162Z,103739.00
2023-02-08T01:39:16.877Z,103738.00
2023-02-08T01:41:46.574Z,103742.00
2023-02-08T01:44:13.541Z,103737.00
2023-02-08T01:46:43.513Z,103732.00
2023-02-08T01:49:32.723Z,103737.00
2023-02-08T01:52:08.844Z,103741.00
2023-02-08T01:54:41.833Z,103733.00
2023-02-08T01:57:09.213Z,103733.00
2023-02-08T01:59:53.614Z,103734.00
2023-02-08T02:02:23.241Z,103737.00
2023-02-08T02:04:52.105Z,103746.00
2023-02-08T02:07:21.727Z,103725.00
2023-02-08T02:10:01.852Z,103735.00
2023-02-08T02:12:32.111Z,103737.00
2023-02-08T02:15:00.933Z,103727.00
2023-02-08T02:17:27.991Z,103727.00
2023-02-08T02:20:32.583Z,103725.00
2023-02-08T02:23:53.615Z,103732.00
2023-02-08T02:27:09.098Z,103740.00
2023-02-08T02:30:10.061Z,103742.00
2023-02-08T02:33:05.619Z,103744.00
2023-02-08T02:36:23.224Z,103744.00
2023-02-08T02:39:10.410Z,103742.00
2023-02-08T02:42:25.596Z,103741.00
2023-02-08T02:45:19.960Z,103737.00
2023-02-08T02:48:05.253Z,103732.00
2023-02-08T02:50:49.534Z,103739.00
2023-02-08T02:53:31.169Z,103745.00
2023-02-08T02:56:13.579Z,103743.00
2023-02-08T02:58:43.130Z,103750.00
2023-02-08T03:01:10.081Z,103750.00
2023-02-08T03:03:36.903Z,103740.00
2023-02-08T03:06:12.224Z,103745.00
2023-02-08T03:09:13.460Z,103744.00
2023-02-08T03:11:51.271Z,103743.00
2023-02-08T03:14:53.329Z,103751.00
2023-02-08T03:17:50.344Z,103754.00
2023-02-08T03:20:32.088Z,103749.00
2023-02-08T03:23:30.605Z,103737.00
2023-02-08T03:26:20.125Z,103731.00
2023-02-08T03:29:28.591Z,103742.00
2023-02-08T03:32:07.224Z,103749.00
2023-02-08T03:34:47.473Z,103750.00
2023-02-08T03:37:27.359Z,103742.00
2023-02-08T03:40:28.718Z,103742.00
2023-02-08T03:43:03.207Z,103747.00
2023-02-08T03:45:43.097Z,103740.00
2023-02-08T03:48:14.069Z,103733.00
2023-02-08T03:50:47.296Z,103736.00
2023-02-08T03:53:21.518Z,103745.00
2023-02-08T03:55:56.442Z,103745.00
2023-02-08T03:58:52.307Z,103730.00
2023-02-08T04:01:29.477Z,103732.00
2023-02-08T04:03:58.532Z,103738.00
2023-02-08T04:06:25.622Z,103736.00
2023-02-08T04:08:52.723Z,103743.00
2023-02-08T04:11:20.010Z,103745.00
2023-02-08T04:13:47.080Z,103740.00
2023-02-08T04:16:14.374Z,103737.00
2023-02-08T04:18:41.174Z,103738.00
2023-02-08T04:21:07.988Z,103733.00
2023-02-08T04:23:34.730Z,103734.00
2023-02-08T04:26:01.490Z,103738.00
2023-02-08T04:28:28.271Z,103743.00
2023-02-08T04:30:57.023Z,103736.00
2023-02-08T04:33:23.908Z,103741.00
2023-02-08T04:35:50.668Z,103750.00
2023-02-08T04:38:17.515Z,103747.00
2023-02-08T04:40:44.280Z,103737.00
2023-02-08T04:43:10.987Z,103739.00
2023-02-08T04:45:37.766Z,103720.00
2023-02-08T04:48:07.305Z,103721.00
2023-02-08T04:50:35.278Z,103729.00
2023-02-08T04:53:02.152Z,103734.00
2023-02-08T04:55:29.019Z,103745.00
2023-02-08T04:57:55.780Z,103732.00
2023-02-08T05:00:22.595Z,103736.00
2023-02-08T05:02:54.477Z,103738.00
2023-02-08T05:05:21.358Z,103738.00
2023-02-08T05:07:48.127Z,103741.00
2023-02-08T05:10:15.706Z,103743.00
2023-02-08T05:12:43.076Z,103739.00
2023-02-08T05:15:10.985Z,103743.00
2023-02-08T05:17:38.851Z,103748.00
2023-02-08T05:20:07.487Z,103744.00
2023-02-08T05:22:34.301Z,103739.00
2023-02-08T05:25:01.687Z,103747.00
2023-02-08T05:27:28.529Z,103748.00
2023-02-08T05:29:56.029Z,103749.00
2023-02-08T05:32:24.431Z,103752.00
2023-02-08T05:34:51.130Z,103753.00
2023-02-08T05:37:17.886Z,103753.00
2023-02-08T05:39:44.697Z,103751.00
2023-02-08T05:42:11.426Z,103744.00
2023-02-08T05:44:38.286Z,103751.00
2023-02-08T05:47:05.145Z,103759.00
2023-02-08T05:49:31.865Z,103758.00
2023-02-08T05:51:58.619Z,103756.00
2023-02-08T05:54:25.492Z,103760.00
2023-02-08T05:56:52.272Z,103757.00
2023-02-08T05:59:18.982Z,103764.00
2023-02-08T06:01:45.731Z,103755.00
2023-02-08T06:04:12.541Z,103759.00
2023-02-08T06:06:39.333Z,103757.00
2023-02-08T06:09:06.078Z,103770.00
2023-02-08T06:11:33.655Z,103764.00
2023-02-08T06:14:00.380Z,103767.00
2023-02-08T06:16:27.236Z,103777.00
2023-02-08T06:18:54.325Z,103775.00
2023-02-08T06:21:22.859Z,103772.00
2023-02-08T06:23:50.972Z,103777.00
2023-02-08T06:26:17.691Z,103778.00
2023-02-08T06:28:44.409Z,103782.00
2023-02-08T06:31:11.158Z,103783.00
2023-02-08T06:33:37.901Z,103776.00
2023-02-08T06:36:04.844Z,103780.00
2023-02-08T06:38:31.617Z,103789.00
2023-02-08T06:40:58.907Z,103781.00
2023-02-08T06:43:26.056Z,103780.00
2023-02-08T06:45:53.314Z,103789.00
2023-02-08T06:48:20.146Z,103781.00
2023-02-08T06:50:47.357Z,103779.00
2023-02-08T06:53:14.901Z,103782.00
2023-02-08T06:55:42.055Z,103784.00
2023-02-08T06:58:09.625Z,103786.00
2023-02-08T07:00:36.430Z,103789.00
2023-02-08T07:03:03.611Z,103790.00
2023-02-08T07:05:30.616Z,103783.00
2023-02-08T07:07:57.807Z,103786.00
2023-02-08T07:10:24.514Z,103786.00
2023-02-08T07:12:51.251Z,103796.00
2023-02-08T07:15:18.052Z,103789.00
2023-02-08T07:17:44.778Z,103788.00
2023-02-08T07:20:12.459Z,103769.00
2023-02-08T07:22:40.898Z,103783.00
2023-02-08T07:25:09.629Z,103779.00
2023-02-08T07:27:36.406Z,103783.00
2023-02-08T07:30:03.774Z,103786.00
2023-02-08T07:32:31.687Z,103780.00
2023-02-08T07:34:59.464Z,103780.00
2023-02-08T07:37:26.977Z,103779.00
2023-02-08T07:39:53.700Z,103780.00
2023-02-08T07:42:20.430Z,103782.00
2023-02-08T07:44:47.242Z,103790.00
2023-02-08T07:47:13.975Z,103807.00
2023-02-08T07:49:40.716Z,103800.00
2023-02-08T07:52:07.499Z,103799.00
2023-02-08T07:54:34.418Z,103798.00
2023-02-08T07:57:03.389Z,103800.00
2023-02-08T07:59:30.542Z,103811.00
2023-02-08T08:01:57.325Z,103812.00
2023-02-08T08:04:24.081Z,103811.00
2023-02-08T08:06:51.550Z,103808.00
2023-02-08T08:09:20.227Z,103815.00
2023-02-08T08:11:46.959Z,103807.00
2023-02-08T08:14:13.899Z,103811.00
2023-02-08T08:16:41.236Z,103823.00
2023-02-08T08:19:07.945Z,103829.00
2023-02-08T08:21:34.716Z,103821.00
2023-02-08T08:24:01.628Z,103827.00
2023-02-08T08:26:29.689Z,103826.00
2023-02-08T08:28:56.500Z,103833.00
2023-02-08T08:31:23.486Z,103827.00
2023-02-08T08:33:50.479Z,103829.00
2023-02-08T08:36:17.369Z,103824.00
2023-02-08T08:38:44.208Z,103825.00
2023-02-08T08:41:18.103Z,103832.00
2023-02-08T08:43:45.505Z,103816.00
2023-02-08T08:46:12.433Z,103815.00
2023-02-08T08:48:39.439Z,103808.00
2023-02-08T08:51:07.300Z,103812.00
2023-02-08T08:53:35.101Z,103804.00
2023-02-08T08:56:02.469Z,103806.00
2023-02-08T08:58:29.358Z,103809.00
2023-02-08T09:01:00.481Z,103800.00
2023-02-08T09:03:28.793Z,103802.00
2023-02-08T09:05:56.272Z,103796.00
2023-02-08T09:08:23.143Z,103806.00
2023-02-08T09:10:50.321Z,103792.00
2023-02-08T09:13:19.807Z,103787.00
2023-02-08T09:15:48.623Z,103789.00
2023-02-08T09:18:16.189Z,103791.00
2023-02-08T09:20:43.421Z,103786.00
2023-02-08T09:23:10.432Z,103791.00
2023-02-08T09:25:37.968Z,103784.00
2023-02-08T09:28:04.929Z,103793.00
2023-02-08T09:30:32.267Z,103800.00
2023-02-08T09:32:59.175Z,103802.00
2023-02-08T09:35:26.258Z,103803.00
2023-02-08T09:37:55.743Z,103808.00
2023-02-08T09:40:27.174Z,103812.00
2023-02-08T09:43:24.336Z,103803.00
2023-02-08T09:46:05.443Z,103815.00
2023-02-08T09:48:38.013Z,103815.00
2023-02-08T09:51:25.087Z,103810.00
2023-02-08T09:54:17.225Z,103803.00
2023-02-08T09:56:44.923Z,103803.00
2023-02-08T09:59:22.899Z,103798.00
2023-02-08T10:01:56.308Z,103792.00
2023-02-08T10:04:53.172Z,103791.00
2023-02-08T10:07:19.891Z,103775.00
2023-02-08T10:09:46.707Z,103785.00
2023-02-08T10:13:08.513Z,103765.00
2023-02-08T10:15:54.551Z,103765.00
2023-02-08T10:18:57.247Z,103766.00
2023-02-08T10:22:02.874Z,103745.00
2023-02-08T10:25:27.590Z,103754.00
2023-02-08T10:28:32.884Z,103753.00
2023-02-08T10:31:43.972Z,103751.00
2023-02-08T10:34:40.584Z,103743.00
2023-02-08T10:37:24.973Z,103738.00
2023-02-08T10:39:52.069Z,103726.00
2023-02-08T10:42:22.590Z,103736.00
2023-02-08T10:45:24.369Z,103733.00
2023-02-08T10:48:05.765Z,103720.00
2023-02-08T10:50:50.567Z,103719.00
2023-02-08T10:53:20.031Z,103713.00
2023-02-08T10:55:49.010Z,103731.00
2023-02-08T10:58:25.452Z,103721.00
2023-02-08T11:00:53.812Z,103707.00
2023-02-08T11:03:29.385Z,103716.00
2023-02-08T11:05:57.033Z,103716.00
2023-02-08T11:08:27.728Z,103707.00
2023-02-08T11:11:04.194Z,103702.00
2023-02-08T11:13:38.517Z,103707.00
2023-02-08T11:16:20.009Z,103701.00
2023-02-08T11:18:58.142Z,103700.00
2023-02-08T11:21:52.254Z,103695.00
2023-02-08T11:24:41.329Z,103705.00
2023-02-08T11:27:38.209Z,103693.00
2023-02-08T11:30:14.173Z,103706.00
2023-02-08T11:32:43.645Z,103697.00
2023-02-08T11:35:26.547Z,103689.00
2023-02-08T11:37:57.114Z,103688.00
2023-02-08T11:40:32.907Z,103690.00
2023-02-08T11:43:00.074Z,103681.00
2023-02-08T11:45:36.691Z,103683.00
2023-02-08T11:48:05.689Z,103685.00
2023-02-08T11:50:36.806Z,103682.00
2023-02-08T11:53:23.239Z,103693.00
2023-02-08T11:56:16.098Z,103683.00
2023-02-08T11:58:54.968Z,103685.00
2023-02-08T12:01:25.506Z,103684.00
2023-02-08T12:03:52.489Z,103691.00
2023-02-08T12:06:34.784Z,103691.00
2023-02-08T12:09:14.896Z,103675.00
2023-02-08T12:11:49.605Z,103670.00
2023-02-08T12:14:41.827Z,103674.00
2023-02-08T12:17:39.926Z,103686.00
2023-02-08T12:20:44.118Z,103688.00
2023-02-08T12:23:50.080Z,103686.00
2023-02-08T12:26:37.341Z,103694.00
2023-02-08T12:29:46.944Z,103696.00
2023-02-08T12:32:57.250Z,103691.00
2023-02-08T12:36:04.068Z,103694.00
2023-02-08T12:39:26.047Z,103691.00
2023-02-08T12:42:26.812Z,103687.00
2023-02-08T12:45:24.202Z,103678.00
2023-02-08T12:48:09.854Z,103694.00
2023-02-08T12:50:50.028Z,103687.00
2023-02-08T12:53:48.908Z,103689.00
2023-02-08T12:56:25.832Z,103676.00
2023-02-08T12:59:11.851Z,103672.00
2023-02-08T13:01:51.142Z,103670.00
2023-02-08T13:04:26.726Z,103684.00
2023-02-08T13:07:00.775Z,103675.00
2023-02-08T13:09:43.191Z,103666.00
2023-02-08T13:12:21.679Z,103657.00
2023-02-08T13:15:02.835Z,103658.00
2023-02-08T13:17:52.268Z,103658.00
2023-02-08T13:20:48.045Z,103653.00
2023-02-08T13:23:28.113Z,103657.00
2023-02-08T13:26:07.852Z,103641.00
2023-02-08T13:28:34.871Z,103642.00
2023-02-08T13:31:13.324Z,103644.00
2023-02-08T13:34:08.086Z,103637.00
2023-02-08T13:36:41.361Z,103627.00
2023-02-08T13:39:34.586Z,103637.00
2023-02-08T13:42:04.664Z,103630.00
2023-02-08T13:44:40.786Z,103634.00
2023-02-08T13:47:27.680Z,103630.00
2023-02-08T13:49:57.292Z,103625.00
2023-02-08T13:52:46.547Z,103625.00
2023-02-08T13:55:39.999Z,103632.00
2023-02-08T13:58:15.815Z,103624.00
2023-02-08T14:00:54.829Z,103618.00
2023-02-08T14:03:28.350Z,103626.00
2023-02-08T14:05:59.829Z,103625.00
2023-02-08T14:08:55.057Z,103614.00
2023-02-08T14:11:49.542Z,103615.00
2023-02-08T14:14:28.586Z,103616.00
2023-02-08T14:17:04.104Z,103612.00
2023-02-08T14:19:37.852Z,103614.00
2023-02-08T14:22:18.719Z,103611.00
2023-02-08T14:25:03.333Z,103608.00
2023-02-08T14:27:49.055Z,103594.00
2023-02-08T14:30:18.534Z,103603.00
2023-02-08T14:33:12.490Z,103607.00
2023-02-08T14:35:50.523Z,103598.00
2023-02-08T14:38:19.995Z,103586.00
2023-02-08T14:40:58.960Z,103591.00
2023-02-08T14:43:42.439Z,103597.00
2023-02-08T14:46:37.330Z,103587.00
2023-02-08T14:49:17.158Z,103586.00
2023-02-08T14:51:58.387Z,103576.00
2023-02-08T14:54:45.814Z,103583.00
2023-02-08T14:57:31.502Z,103592.00
2023-02-08T15:00:20.873Z,103587.00
2023-02-08T15:02:49.413Z,103576.00
2023-02-08T15:05:30.070Z,103574.00
2023-02-08T15:08:00.835Z,103573.00
2023-02-08T15:10:30.413Z,103570.00
2023-02-08T15:13:03.631Z,103565.00
2023-02-08T15:15:41.556Z,103569.00
2023-02-08T15:18:19.963Z,103568.00
2023-02-08T15:21:06.744Z,103553.00
2023-02-08T15:23:33.794Z,103556.00
2023-02-08T15:26:04.626Z,103546.00
2023-02-08T15:28:36.455Z,103547.00
2023-02-08T15:31:07.745Z,103559.00
2023-02-08T15:33:39.418Z,103549.00
2023-02-08T15:36:16.220Z,103542.00
2023-02-08T15:38:46.652Z,103542.00
2023-02-08T15:41:24.335Z,103546.00
2023-02-08T15:43:51.288Z,103543.00
2023-02-08T15:46:27.413Z,103537.00
2023-02-08T15:48:57.278Z,103531.00
2023-02-08T15:51:27.328Z,103535.00
2023-02-08T15:53:56.686Z,103535.00
2023-02-08T15:56:37.161Z,103523.00
2023-02-08T15:59:08.146Z,103532.00
2023-02-08T16:01:35.145Z,103517.00
2023-02-08T16:04:12.491Z,103513.00
2023-02-08T16:06:47.477Z,103512.00
2023-02-08T16:09:23.877Z,103519.00
2023-02-08T16:11:51.628Z,103531.00
2023-02-08T16:14:27.864Z,103525.00
2023-02-08T16:16:58.247Z,103524.00
2023-02-08T16:19:33.270Z,103520.00
2023-02-08T16:22:28.695Z,103516.00
2023-02-08T16:25:31.887Z,103520.00
2023-02-08T16:27:58.743Z,103510.00
2023-02-08T16:30:25.837Z,103520.00
2023-02-08T16:32:52.856Z,103513.00
2023-02-08T16:35:29.531Z,103520.00
2023-02-08T16:38:00.598Z,103520.00
2023-02-08T16:40:54.608Z,103513.00
2023-02-08T16:43:35.088Z,103521.00
2023-02-08T16:46:10.859Z,103505.00
2023-02-08T16:48:41.044Z,103522.00
2023-02-08T16:51:16.657Z,103518.00
2023-02-08T16:53:43.784Z,103515.00
2023-02-08T16:56:11.485Z,103522.00
2023-02-08T16:58:38.722Z,103514.00
2023-02-08T17:01:06.497Z,103506.00
2023-02-08T17:03:33.287Z,103514.00
2023-02-08T17:06:00.993Z,103500.00
2023-02-08T17:08:28.018Z,103513.00
2023-02-08T17:10:58.859Z,103507.00
2023-02-08T17:13:29.412Z,103500.00
2023-02-08T17:16:00.126Z,103511.00
2023-02-08T17:18:27.100Z,103503.00
2023-02-08T17:20:59.394Z,103497.00
2023-02-08T17:23:26.861Z,103500.00
2023-02-08T17:25:53.664Z,103502.00
2023-02-08T17:28:21.289Z,103503.00
2023-02-08T17:30:50.420Z,103502.00
2023-02-08T17:33:19.946Z,103494.00
2023-02-08T17:35:50.444Z,103499.00
2023-02-08T17:38:19.255Z,103497.00
2023-02-08T17:40:46.659Z,103485.00
2023-02-08T17:43:13.967Z,103489.00
2023-02-08T17:45:44.484Z,103489.00
2023-02-08T17:48:13.523Z,103485.00
2023-02-08T17:50:43.983Z,103479.00
2023-02-08T17:53:11.059Z,103472.00
2023-02-08T17:55:41.516Z,103488.00
2023-02-08T17:58:08.494Z,103478.00
2023-02-08T18:00:35.299Z,103473.00
2023-02-08T18:03:03.059Z,103464.00
2023-02-08T18:05:30.146Z,103470.00
2023-02-08T18:07:57.651Z,103461.00
2023-02-08T18:10:25.620Z,103457.00
2023-02-08T18:12:52.430Z,103450.00
2023-02-08T18:15:22.393Z,103456.00
2023-02-08T18:17:50.307Z,103458.00
2023-02-08T18:20:18.515Z,103462.00
2023-02-08T18:22:45.904Z,103457.00
2023-02-08T18:25:13.832Z,103450.00
2023-02-08T18:27:40.653Z,103456.00
2023-02-08T18:30:08.467Z,103460.00
2023-02-08T18:32:35.182Z,103447.00
2023-02-08T18:35:03.978Z,103451.00
2023-02-08T18:37:31.912Z,103441.00
2023-02-08T18:39:59.405Z,103445.00
2023-02-08T18:42:26.311Z,103439.00
2023-02-08T18:44:53.174Z,103432.00
2023-02-08T18:47:20.008Z,103432.00
2023-02-08T18:49:47.791Z,103425.00
2023-02-08T18:52:17.737Z,103431.00
2023-02-08T18:54:44.458Z,103421.00
2023-02-08T18:57:11.383Z,103413.00
2023-02-08T18:59:38.574Z,103421.00
2023-02-08T19:02:07.809Z,103420.00
2023-02-08T19:04:40.916Z,103414.00
2023-02-08T19:07:07.694Z,103411.00
2023-02-08T19:09:36.434Z,103403.00
2023-02-08T19:12:04.124Z,103397.00
2023-02-08T19:14:31.423Z,103391.00
2023-02-08T19:16:58.623Z,103393.00
2023-02-08T19:19:25.510Z,103394.00
2023-02-08T19:21:52.441Z,103391.00
2023-02-08T19:24:19.658Z,103386.00
2023-02-08T19:26:47.489Z,103387.00
2023-02-08T19:29:17.721Z,103376.00
2023-02-08T19:31:45.422Z,103368.00
2023-02-08T19:34:13.227Z,103373.00
2023-02-08T19:36:49.180Z,103368.00
2023-02-08T19:39:23.369Z,103372.00
2023-02-08T19:41:52.592Z,103371.00
2023-02-08T19:44:20.931Z,103371.00
2023-02-08T19:46:52.306Z,103369.00
2023-02-08T19:49:20.371Z,103366.00
2023-02-08T19:51:47.516Z,103362.00
2023-02-08T19:54:17.598Z,103361.00
2023-02-08T19:56:45.862Z,103361.00
2023-02-08T19:59:29.322Z,103342.00
2023-02-08T20:01:56.326Z,103349.00
2023-02-08T20:04:23.718Z,103338.00
2023-02-08T20:06:53.307Z,103342.00
2023-02-08T20:09:20.865Z,103337.00
2023-02-08T20:11:56.844Z,103340.00
2023-02-08T20:14:25.131Z,103339.00
2023-02-08T20:16:52.800Z,103337.00
2023-02-08T20:19:19.821Z,103338.00
2023-02-08T20:21:46.545Z,103343.00
2023-02-08T20:24:13.914Z,103331.00
2023-02-08T20:26:44.342Z,103343.00
2023-02-08T20:29:13.798Z,103337.00
2023-02-08T20:31:45.282Z,103340.00
2023-02-08T20:34:15.638Z,103333.00
2023-02-08T20:37:05.274Z,103334.00
2023-02-08T20:39:33.284Z,103333.00
2023-02-08T20:42:00.104Z,103338.00
2023-02-08T20:44:28.386Z,103339.00
2023-02-08T20:46:55.648Z,103335.00
2023-02-08T20:49:25.407Z,103337.00
2023-02-08T20:51:53.974Z,103335.00
2023-02-08T20:54:23.823Z,103324.00
2023-02-08T20:56:52.655Z,103329.00
2023-02-08T20:59:19.434Z,103326.00
2023-02-08T21:01:46.585Z,103312.00
2023-02-08T21:04:13.800Z,103303.00
2023-02-08T21:06:44.424Z,103310.00
2023-02-08T21:09:15.409Z,103306.00
2023-02-08T21:11:42.982Z,103312.00
2023-02-08T21:14:15.425Z,103307.00
2023-02-08T21:16:42.231Z,103302.00
2023-02-08T21:19:10.731Z,103308.00
2023-02-08T21:21:37.460Z,103304.00
2023-02-08T21:24:04.848Z,103294.00
2023-02-08T21:26:31.590Z,103286.00
2023-02-08T21:28:58.863Z,103297.00
2023-02-08T21:31:26.716Z,103293.00
2023-02-08T21:33:53.942Z,103288.00
2023-02-08T21:36:24.757Z,103285.00
2023-02-08T21:38:51.578Z,103273.00
2023-02-08T21:41:25.556Z,103281.00
2023-02-08T21:43:54.641Z,103273.00
2023-02-08T21:46:24.710Z,103265.00
2023-02-08T21:49:10.735Z,103265.00
2023-02-08T21:51:56.395Z,103254.00
2023-02-08T21:54:46.428Z,103251.00
2023-02-08T21:57:26.979Z,103245.00
2023-02-08T21:59:58.533Z,103243.00
2023-02-08T22:02:28.891Z,103235.00
2023-02-08T22:05:18.066Z,103247.00
2023-02-08T22:07:48.202Z,103233.00
2023-02-08T22:10:19.447Z,103235.00
2023-02-08T22:12:47.257Z,103237.00
2023-02-08T22:15:18.087Z,103233.00
2023-02-08T22:17:45.682Z,103227.00
2023-02-08T22:20:14.615Z,103221.00
2023-02-08T22:22:41.465Z,103222.00
2023-02-08T22:25:08.483Z,103218.00
2023-02-08T22:27:35.757Z,103224.00
2023-02-08T22:30:02.517Z,103222.00
2023-02-08T22:32:29.249Z,103228.00
2023-02-08T22:34:56.042Z,103225.00
2023-02-08T22:37:22.800Z,103204.00
2023-02-08T22:39:50.277Z,103207.00
2023-02-08T22:42:17.081Z,103205.00
2023-02-08T22:44:44.587Z,103218.00
2023-02-08T22:47:13.039Z,103216.00
2023-02-08T22:49:40.139Z,103210.00
2023-02-08T22:52:08.682Z,103215.00
2023-02-08T22:54:36.183Z,103192.00
2023-02-08T22:57:05.892Z,103201.00
2023-02-08T22:59:34.020Z,103191.00
2023-02-08T23:02:01.726Z,103202.00
2023-02-08T23:04:28.925Z,103193.00
2023-02-08T23:06:55.916Z,103196.00
2023-02-08T23:09:23.186Z,103184.00
2023-02-08T23:11:50.030Z,103187.00
2023-02-08T23:14:17.100Z,103186.00
2023-02-08T23:16:44.325Z,103184.00
2023-02-08T23:19:16.505Z,103196.00
2023-02-08T23:21:43.856Z,103189.00
2023-02-08T23:24:11.360Z,103197.00
2023-02-08T23:26:38.821Z,103192.00
2023-02-08T23:29:06.318Z,103190.00
2023-02-08T23:31:33.266Z,103188.00
2023-02-08T23:34:00.712Z,103185.00
2023-02-08T23:36:28.072Z,103190.00
2023-02-08T23:38:54.875Z,103177.00
2023-02-08T23:41:23.875Z,103180.00
2023-02-08T23:43:52.419Z,103179.00
2023-02-08T23:46:26.637Z,103170.00
2023-02-08T23:48:54.766Z,103174.00
2023-02-08T23:51:24.520Z,103179.00
2023-02-08T23:53:53.090Z,103180.00
2023-02-08T23:56:29.729Z,103174.00
2023-02-08T23:58:59.180Z,103163.00
